Time;durP1;ratioP1;P1;durP2;ratioP2;P2;SDS_P1;SDS_P2;PMS_P1;PMS_P2;Temp;Humidity;BMP_temperature;BMP_pressure;BME280_temperature;BME280_humidity;BME280_pressure;Samples;Min_cycle;Max_cycle;Signal;HPM_P1;HPM_P2
2023/05/22 00:01:27;;;;;;;3.08;1.92;;;14.50;99.90;;;;;;5075973;28;20217;-90
2023/05/22 00:04:01;;;;;;;4.10;2.08;;;14.50;99.90;;;;;;5075644;28;20728;-90
2023/05/22 00:06:33;;;;;;;5.10;1.83;;;14.60;99.90;;;;;;5075806;28;20192;-91
2023/05/22 00:09:04;;;;;;;5.45;2.08;;;14.60;99.90;;;;;;5075970;28;20659;-91
2023/05/22 00:11:36;;;;;;;7.15;2.13;;;14.70;99.90;;;;;;5075750;28;20579;-91
2023/05/22 00:14:12;;;;;;;3.25;1.70;;;14.70;99.90;;;;;;5074692;28;20227;-90
2023/05/22 00:16:45;;;;;;;4.45;1.75;;;14.70;99.90;;;;;;5076094;28;20227;-91
2023/05/22 00:19:16;;;;;;;3.40;1.60;;;14.80;99.90;;;;;;5078198;28;20281;-91
2023/05/22 00:21:47;;;;;;;2.97;1.60;;;14.90;99.90;;;;;;5087001;28;20567;-91
2023/05/22 00:24:19;;;;;;;4.55;1.73;;;15.00;99.90;;;;;;5078526;28;20231;-91
2023/05/22 00:26:50;;;;;;;5.90;1.77;;;15.10;99.90;;;;;;5076651;28;20341;-91
2023/05/22 00:29:25;;;;;;;5.80;1.50;;;15.10;99.90;;;;;;5075506;28;20211;-91
2023/05/22 00:31:56;;;;;;;6.78;2.75;;;15.20;99.90;;;;;;5075461;28;20203;-91
2023/05/22 00:34:28;;;;;;;3.10;1.60;;;15.30;99.90;;;;;;5075338;28;20211;-91
2023/05/22 00:36:59;;;;;;;2.78;1.30;;;15.20;99.90;;;;;;5075992;28;20659;-91
2023/05/22 00:39:31;;;;;;;3.03;1.40;;;15.30;99.90;;;;;;5075272;28;20198;-91
2023/05/22 00:42:03;;;;;;;5.35;1.50;;;15.40;99.90;;;;;;5075706;28;20255;-91
2023/05/22 00:44:36;;;;;;;4.10;1.60;;;15.30;99.90;;;;;;5081151;28;20210;-90
2023/05/22 00:47:07;;;;;;;2.80;1.30;;;15.50;99.90;;;;;;5078985;28;20199;-91
2023/05/22 00:49:39;;;;;;;3.72;1.60;;;15.60;99.90;;;;;;5076881;28;20192;-90
2023/05/22 00:52:11;;;;;;;7.03;1.60;;;15.60;99.90;;;;;;5080229;28;20206;-91
2023/05/22 00:54:44;;;;;;;5.68;1.42;;;15.70;99.90;;;;;;5093451;28;20203;-88
2023/05/22 00:57:16;;;;;;;3.00;1.27;;;15.80;99.90;;;;;;5098362;28;20196;-91
2023/05/22 00:59:50;;;;;;;5.43;1.50;;;15.80;99.90;;;;;;5091451;28;20200;-88
2023/05/22 01:02:23;;;;;;;4.35;1.42;;;16.00;99.90;;;;;;5096593;28;20216;-86
2023/05/22 01:04:56;;;;;;;5.13;1.50;;;16.10;99.90;;;;;;5097002;28;20196;-88
2023/05/22 01:07:29;;;;;;;6.65;1.80;;;16.30;99.90;;;;;;5082899;28;20227;-90
2023/05/22 01:10:00;;;;;;;4.00;1.50;;;16.40;99.90;;;;;;5075498;28;20203;-89
2023/05/22 01:12:40;;;;;;;5.15;1.77;;;16.50;99.90;;;;;;5074518;28;20662;-89
2023/05/22 01:15:23;;;;;;;8.60;2.10;;;16.50;99.90;;;;;;5075129;28;20200;-89
2023/05/22 01:18:06;;;;;;;3.55;1.42;;;16.50;99.90;;;;;;5074157;28;20196;-89
2023/05/22 01:20:43;;;;;;;3.42;1.27;;;16.50;99.90;;;;;;5054482;28;20192;-90
2023/05/22 01:23:52;;;;;;;5.90;1.73;;;16.40;99.90;;;;;;5054675;28;20212;-92
2023/05/22 01:26:54;;;;;;;2.13;1.30;;;16.60;99.90;;;;;;5054954;28;20203;-91
2023/05/22 01:29:44;;;;;;;8.52;2.13;;;16.60;99.90;;;;;;5012193;28;20207;-90
2023/05/22 01:32:23;;;;;;;4.90;1.33;;;16.70;99.90;;;;;;5015932;28;20198;-90
2023/05/22 01:35:01;;;;;;;2.88;1.40;;;16.70;99.90;;;;;;5015521;28;20634;-89
2023/05/22 01:37:34;;;;;;;3.40;1.25;;;16.70;99.90;;;;;;5016878;28;20215;-92
2023/05/22 01:40:07;;;;;;;5.82;1.70;;;16.80;99.90;;;;;;5041646;28;20200;-91
2023/05/22 01:42:43;;;;;;;3.42;1.60;;;16.80;99.90;;;;;;5042275;28;20197;-91
2023/05/22 01:45:17;;;;;;;4.30;1.40;;;16.60;99.90;;;;;;5040248;28;20220;-91
2023/05/22 01:47:53;;;;;;;3.17;1.20;;;16.80;99.90;;;;;;5037326;28;20207;-91
2023/05/22 01:50:28;;;;;;;6.78;1.30;;;16.90;99.90;;;;;;5038305;28;20204;-89
2023/05/22 01:53:09;;;;;;;3.88;1.30;;;17.00;99.90;;;;;;5041979;28;20204;-91
2023/05/22 01:55:47;;;;;;;5.05;1.40;;;17.00;99.90;;;;;;5039803;28;20204;-90
2023/05/22 01:58:30;;;;;;;5.22;1.42;;;17.10;99.90;;;;;;5039877;28;20736;-89
2023/05/22 02:01:03;;;;;;;4.03;1.27;;;17.20;99.90;;;;;;5037241;28;20531;-91
2023/05/22 02:03:45;;;;;;;3.33;1.10;;;17.10;99.90;;;;;;5034895;28;20794;-92
2023/05/22 02:06:18;;;;;;;4.13;1.33;;;17.20;99.90;;;;;;5037087;28;20193;-91
2023/05/22 02:08:52;;;;;;;3.00;1.40;;;17.30;99.90;;;;;;5037835;28;20211;-91
2023/05/22 02:11:25;;;;;;;6.10;1.30;;;17.40;99.90;;;;;;5039719;28;20663;-91
2023/05/22 02:13:58;;;;;;;2.78;1.20;;;17.60;99.90;;;;;;5037046;28;20220;-90
2023/05/22 02:16:33;;;;;;;4.05;1.27;;;17.60;99.90;;;;;;5035935;28;20253;-92
2023/05/22 02:19:09;;;;;;;6.93;1.15;;;17.70;99.90;;;;;;5032525;28;20201;-91
2023/05/22 02:21:49;;;;;;;3.13;1.23;;;17.80;99.90;;;;;;5024298;28;20209;-89
2023/05/22 02:24:22;;;;;;;2.63;1.10;;;17.80;99.90;;;;;;5018509;28;20226;-90
2023/05/22 02:26:54;;;;;;;5.53;1.23;;;18.00;99.90;;;;;;5032395;28;20240;-89
2023/05/22 02:29:25;;;;;;;3.45;1.10;;;18.10;99.90;;;;;;5077584;28;20202;-90
2023/05/22 02:31:58;;;;;;;3.03;0.93;;;18.20;99.90;;;;;;5075064;28;20203;-90
2023/05/22 02:34:38;;;;;;;3.15;1.00;;;18.10;99.90;;;;;;5073369;28;20207;-88
2023/05/22 02:37:14;;;;;;;2.70;0.90;;;18.20;99.90;;;;;;5073021;28;20199;-88
2023/05/22 02:39:45;;;;;;;5.35;1.17;;;18.30;98.70;;;;;;5074011;28;20195;-91
2023/05/22 02:42:17;;;;;;;2.30;0.93;;;18.20;97.90;;;;;;5073327;28;20192;-88
2023/05/22 02:44:48;;;;;;;3.58;1.00;;;18.00;98.60;;;;;;5072837;28;20546;-90
2023/05/22 02:47:20;;;;;;;4.22;1.00;;;18.20;97.90;;;;;;5062512;28;20193;-90
2023/05/22 02:49:56;;;;;;;4.53;0.70;;;18.20;96.70;;;;;;5065331;28;20199;-91
2023/05/22 02:52:29;;;;;;;1.38;0.60;;;18.30;96.20;;;;;;5073937;28;20191;-87
2023/05/22 02:55:00;;;;;;;4.43;1.05;;;18.40;93.00;;;;;;5074150;28;20257;-88
2023/05/22 02:57:32;;;;;;;3.85;0.80;;;18.40;90.40;;;;;;5079608;28;20200;-86
2023/05/22 03:00:10;;;;;;;1.17;0.50;;;18.50;85.60;;;;;;5076432;28;20204;-88
2023/05/22 03:02:41;;;;;;;4.13;1.23;;;18.50;83.90;;;;;;5078223;28;20194;-88
2023/05/22 03:05:16;;;;;;;2.88;0.77;;;18.50;77.40;;;;;;5086681;28;20283;-88
2023/05/22 03:07:48;;;;;;;1.38;0.50;;;18.40;78.40;;;;;;5072107;28;20196;-89
2023/05/22 03:10:22;;;;;;;3.03;0.73;;;18.60;80.70;;;;;;5072327;28;20222;-88
2023/05/22 03:12:53;;;;;;;1.65;0.57;;;18.70;80.00;;;;;;5072364;28;20560;-88
2023/05/22 03:15:24;;;;;;;1.67;0.68;;;18.70;82.30;;;;;;5074114;28;20204;-88
2023/05/22 03:17:57;;;;;;;1.00;0.70;;;18.70;84.00;;;;;;5075815;28;20199;-86
2023/05/22 03:20:31;;;;;;;2.55;0.70;;;18.60;83.70;;;;;;5075890;28;20200;-89
2023/05/22 03:23:02;;;;;;;1.77;0.70;;;18.60;81.50;;;;;;5066219;28;20200;-88
2023/05/22 03:25:34;;;;;;;0.88;0.60;;;18.70;81.30;;;;;;5057025;28;20204;-88
2023/05/22 03:28:06;;;;;;;2.15;0.70;;;18.80;80.60;;;;;;5055111;28;20703;-88
2023/05/22 03:30:37;;;;;;;2.50;0.50;;;18.70;81.30;;;;;;5053906;28;20447;-89
2023/05/22 03:33:10;;;;;;;2.13;0.65;;;18.80;79.50;;;;;;5052398;28;20200;-89
2023/05/22 03:35:43;;;;;;;2.50;0.82;;;18.80;78.70;;;;;;5066858;28;20210;-88
2023/05/22 03:38:14;;;;;;;1.58;0.60;;;18.70;80.40;;;;;;5072930;28;20204;-89
2023/05/22 03:40:46;;;;;;;2.38;0.82;;;18.70;79.80;;;;;;5072744;28;20196;-89
2023/05/22 03:43:20;;;;;;;1.50;0.63;;;18.80;82.20;;;;;;5072329;28;20544;-89
2023/05/22 03:45:52;;;;;;;1.85;0.65;;;18.80;80.10;;;;;;5072132;28;20195;-90
2023/05/22 03:48:25;;;;;;;1.52;0.60;;;18.80;80.20;;;;;;5072394;28;20207;-89
2023/05/22 03:51:01;;;;;;;0.90;0.45;;;18.80;80.50;;;;;;5076024;28;20207;-90
2023/05/22 03:53:33;;;;;;;2.47;0.98;;;18.80;81.30;;;;;;5052402;28;20655;-89
2023/05/22 03:56:05;;;;;;;3.80;0.63;;;18.80;82.20;;;;;;5054223;28;20212;-89
2023/05/22 03:58:37;;;;;;;1.80;0.60;;;18.80;81.00;;;;;;5071945;28;20200;-89
2023/05/22 04:01:10;;;;;;;2.17;0.63;;;18.80;83.80;;;;;;5073579;28;20199;-89
2023/05/22 04:03:41;;;;;;;1.42;0.55;;;18.90;81.10;;;;;;5071814;28;20219;-89
2023/05/22 04:06:16;;;;;;;2.28;0.60;;;18.90;78.00;;;;;;5071872;28;20214;-90
2023/05/22 04:08:47;;;;;;;2.05;0.63;;;18.90;77.00;;;;;;5074774;28;20199;-88
2023/05/22 04:11:21;;;;;;;2.40;0.70;;;18.90;76.10;;;;;;5075964;28;20647;-89
2023/05/22 04:13:53;;;;;;;1.02;0.47;;;18.90;76.10;;;;;;5075723;28;20299;-90
2023/05/22 04:16:24;;;;;;;1.33;0.60;;;18.90;75.60;;;;;;5071380;28;20202;-89
2023/05/22 04:19:00;;;;;;;2.35;0.50;;;18.90;78.10;;;;;;5088875;28;20208;-90
2023/05/22 04:21:37;;;;;;;1.27;0.57;;;18.90;77.30;;;;;;5077835;28;20200;-89
2023/05/22 04:24:09;;;;;;;1.67;0.60;;;18.90;74.90;;;;;;5077045;28;20227;-90
2023/05/22 04:26:41;;;;;;;2.17;0.80;;;19.00;73.20;;;;;;5077381;28;20207;-90
2023/05/22 04:29:15;;;;;;;1.65;0.70;;;19.00;74.00;;;;;;5077717;28;20223;-90
2023/05/22 04:31:47;;;;;;;1.30;0.70;;;19.00;74.80;;;;;;5076583;28;20257;-90
2023/05/22 04:34:20;;;;;;;4.43;0.90;;;19.10;73.80;;;;;;5076089;28;20204;-89
2023/05/22 04:36:55;;;;;;;1.55;0.65;;;19.00;73.40;;;;;;5076212;28;20295;-89
2023/05/22 04:39:28;;;;;;;1.95;0.63;;;19.00;75.10;;;;;;5075681;28;20211;-88
2023/05/22 04:42:04;;;;;;;0.73;0.60;;;19.00;72.80;;;;;;5075469;28;20196;-89
2023/05/22 04:44:35;;;;;;;1.65;0.70;;;19.00;73.30;;;;;;5063188;28;20234;-87
2023/05/22 04:47:10;;;;;;;1.20;0.60;;;19.10;73.60;;;;;;5067486;28;20196;-87
2023/05/22 04:49:41;;;;;;;2.35;0.60;;;19.00;73.90;;;;;;5074354;28;20195;-88
2023/05/22 04:52:14;;;;;;;1.30;0.60;;;19.10;75.10;;;;;;5074665;28;20188;-88
2023/05/22 04:54:50;;;;;;;2.58;0.63;;;19.10;73.30;;;;;;5075712;28;20207;-88
2023/05/22 04:57:24;;;;;;;3.13;0.70;;;19.10;71.60;;;;;;5076519;28;20199;-88
2023/05/22 04:59:58;;;;;;;1.98;0.93;;;19.10;71.10;;;;;;5075155;28;20333;-88
2023/05/22 05:02:29;;;;;;;1.27;0.70;;;19.10;72.60;;;;;;5074711;28;20203;-90
2023/05/22 05:05:00;;;;;;;1.20;0.65;;;19.10;70.90;;;;;;5073452;28;20234;-87
2023/05/22 05:07:39;;;;;;;1.30;0.50;;;19.10;70.70;;;;;;5075505;28;20675;-90
2023/05/22 05:10:10;;;;;;;2.50;0.95;;;19.20;72.30;;;;;;5087180;28;20587;-90
2023/05/22 05:12:43;;;;;;;1.63;0.70;;;19.30;69.90;;;;;;5074566;28;20204;-90
2023/05/22 05:15:14;;;;;;;2.25;0.70;;;19.40;69.50;;;;;;5070140;28;20280;-90
2023/05/22 05:17:46;;;;;;;1.63;0.75;;;19.30;69.50;;;;;;5071500;28;20211;-90
2023/05/22 05:20:18;;;;;;;4.70;1.10;;;19.30;70.30;;;;;;5067163;28;20567;-90
2023/05/22 05:22:52;;;;;;;3.70;0.77;;;19.30;68.70;;;;;;5055118;28;20205;-88
2023/05/22 05:25:23;;;;;;;3.20;1.00;;;19.30;67.60;;;;;;5065069;28;20621;-89
2023/05/22 05:27:55;;;;;;;1.75;0.70;;;19.30;66.70;;;;;;5074641;28;20622;-89
2023/05/22 05:30:28;;;;;;;3.08;1.00;;;19.30;66.00;;;;;;5056082;28;20200;-90
2023/05/22 05:33:00;;;;;;;2.38;0.80;;;19.30;68.90;;;;;;5054949;28;20193;-88
2023/05/22 05:35:31;;;;;;;1.15;0.50;;;19.30;71.50;;;;;;5055570;28;20264;-88
2023/05/22 05:38:05;;;;;;;4.35;1.05;;;19.30;72.70;;;;;;5053641;28;20196;-88
2023/05/22 05:40:36;;;;;;;2.33;0.75;;;19.30;72.90;;;;;;5053449;28;20200;-85
2023/05/22 05:43:07;;;;;;;1.58;0.68;;;19.30;72.70;;;;;;5073464;28;20203;-88
2023/05/22 05:45:40;;;;;;;1.35;0.70;;;19.40;73.10;;;;;;5072815;28;20230;-89
2023/05/22 05:48:12;;;;;;;2.63;0.77;;;19.40;73.80;;;;;;5073678;28;20196;-88
2023/05/22 05:50:43;;;;;;;1.45;0.60;;;19.40;73.80;;;;;;5072040;28;20333;-88
2023/05/22 05:53:19;;;;;;;2.30;0.60;;;19.40;74.10;;;;;;5077904;28;20199;-86
2023/05/22 05:55:50;;;;;;;2.97;0.95;;;19.40;75.70;;;;;;5079853;28;20246;-86
2023/05/22 05:58:22;;;;;;;6.22;1.25;;;19.40;79.10;;;;;;5080191;28;20204;-85
2023/05/22 06:00:53;;;;;;;4.93;1.23;;;19.30;81.90;;;;;;5081322;28;20202;-85
2023/05/22 06:03:25;;;;;;;2.38;0.93;;;19.40;83.30;;;;;;5078720;28;20196;-86
2023/05/22 06:05:59;;;;;;;7.07;1.30;;;19.40;85.10;;;;;;5072678;28;20235;-87
2023/05/22 06:08:33;;;;;;;4.20;1.10;;;19.40;86.50;;;;;;5073315;28;20202;-87
2023/05/22 06:11:04;;;;;;;3.53;1.25;;;19.40;86.20;;;;;;5072719;28;20230;-88
2023/05/22 06:13:35;;;;;;;4.47;1.30;;;19.50;86.70;;;;;;5072743;28;20220;-87
2023/05/22 06:16:07;;;;;;;4.30;1.50;;;19.60;87.40;;;;;;5073508;28;20275;-87
2023/05/22 06:18:38;;;;;;;5.55;2.80;;;19.60;87.60;;;;;;5072642;28;20199;-88
2023/05/22 06:21:09;;;;;;;8.65;2.92;;;19.60;86.70;;;;;;5073626;28;20662;-89
2023/05/22 06:23:44;;;;;;;5.07;2.92;;;19.50;87.10;;;;;;5074219;28;20220;-89
2023/05/22 06:26:15;;;;;;;5.82;3.58;;;19.40;88.10;;;;;;5074161;28;20541;-87
2023/05/22 06:28:47;;;;;;;8.90;5.43;;;19.40;88.50;;;;;;5073445;28;20595;-87
2023/05/22 06:31:21;;;;;;;8.57;5.10;;;19.20;90.00;;;;;;5068360;28;20237;-89
2023/05/22 06:33:54;;;;;;;9.85;5.10;;;19.10;91.00;;;;;;5062121;28;20192;-88
2023/05/22 06:36:26;;;;;;;7.20;3.33;;;19.00;92.00;;;;;;5053924;28;20652;-88
2023/05/22 06:39:00;;;;;;;7.43;2.53;;;18.90;93.20;;;;;;5052826;28;20591;-87
2023/05/22 06:41:34;;;;;;;7.75;2.78;;;18.80;94.30;;;;;;5058190;28;20200;-87
2023/05/22 06:44:05;;;;;;;8.48;3.13;;;18.70;95.30;;;;;;5061519;28;20199;-88
2023/05/22 06:46:37;;;;;;;9.10;3.70;;;18.50;96.20;;;;;;5063386;28;20609;-88
2023/05/22 06:49:08;;;;;;;6.53;3.55;;;18.50;97.00;;;;;;5058077;28;20210;-89
2023/05/22 06:51:43;;;;;;;6.65;3.58;;;18.30;98.00;;;;;;5072868;28;20207;-87
2023/05/22 06:54:20;;;;;;;11.88;5.63;;;18.30;99.00;;;;;;5059545;28;20282;-88
2023/05/22 06:56:51;;;;;;;12.90;6.05;;;18.20;99.90;;;;;;5052968;28;20197;-87
2023/05/22 06:59:23;;;;;;;12.40;6.43;;;18.10;99.90;;;;;;5064784;28;20200;-89
2023/05/22 07:01:54;;;;;;;11.27;6.40;;;18.00;99.90;;;;;;5072271;28;20191;-87
2023/05/22 07:04:26;;;;;;;9.13;4.53;;;18.00;99.90;;;;;;5072057;28;20211;-87
2023/05/22 07:06:58;;;;;;;6.30;3.63;;;17.90;99.90;;;;;;5053955;28;20193;-86
2023/05/22 07:09:31;;;;;;;8.88;3.70;;;17.80;99.90;;;;;;5052710;28;20200;-87
2023/05/22 07:12:02;;;;;;;7.88;3.20;;;17.70;99.90;;;;;;5052066;28;20196;-88
2023/05/22 07:14:34;;;;;;;6.97;3.15;;;17.70;99.90;;;;;;5057460;28;20231;-88
2023/05/22 07:17:06;;;;;;;6.70;3.47;;;17.60;99.90;;;;;;5074574;28;20200;-88
2023/05/22 07:19:38;;;;;;;7.95;3.60;;;17.50;99.90;;;;;;5072227;28;20200;-89
2023/05/22 07:22:09;;;;;;;11.07;4.97;;;17.40;99.90;;;;;;5074034;28;20200;-88
2023/05/22 07:24:42;;;;;;;11.35;5.00;;;17.30;99.90;;;;;;5072844;28;20231;-88
2023/05/22 07:27:13;;;;;;;10.52;5.00;;;17.30;99.90;;;;;;5072609;28;20228;-89
2023/05/22 07:29:46;;;;;;;7.85;4.22;;;17.30;99.90;;;;;;5072683;28;20649;-88
2023/05/22 07:32:28;;;;;;;9.95;4.50;;;17.30;99.90;;;;;;5075441;28;20218;-88
2023/05/22 07:35:00;;;;;;;13.52;6.97;;;17.20;99.90;;;;;;5072870;28;20207;-87
2023/05/22 07:37:31;;;;;;;13.27;7.25;;;17.20;99.90;;;;;;5065278;28;20219;-90
2023/05/22 07:40:04;;;;;;;11.57;7.00;;;17.20;99.90;;;;;;5051675;28;20196;-88
2023/05/22 07:42:37;;;;;;;12.50;7.07;;;17.10;99.90;;;;;;5051027;28;20199;-89
2023/05/22 07:45:11;;;;;;;14.93;6.57;;;17.10;99.90;;;;;;5055655;28;20227;-88
2023/05/22 07:47:43;;;;;;;13.50;6.10;;;17.00;99.90;;;;;;5056234;28;20656;-89
2023/05/22 07:50:15;;;;;;;11.55;5.22;;;17.00;99.90;;;;;;5069486;28;20200;-89
2023/05/22 07:52:47;;;;;;;8.95;4.40;;;17.00;99.90;;;;;;5078041;28;20195;-88
2023/05/22 07:55:24;;;;;;;11.57;4.85;;;16.90;99.90;;;;;;5084336;28;20192;-90
2023/05/22 07:57:55;;;;;;;9.30;3.53;;;16.90;99.90;;;;;;5077665;28;20675;-93
2023/05/22 08:00:28;;;;;;;9.77;3.30;;;16.80;99.90;;;;;;5062867;28;20207;-90
2023/05/22 08:03:02;;;;;;;8.30;3.40;;;16.80;99.90;;;;;;5076244;28;20208;-91
2023/05/22 08:05:33;;;;;;;9.60;3.47;;;16.80;99.90;;;;;;5063005;28;20226;-90
2023/05/22 08:08:06;;;;;;;6.63;2.78;;;16.80;99.90;;;;;;5075332;28;20208;-91
2023/05/22 08:10:39;;;;;;;9.63;2.95;;;16.70;99.90;;;;;;5076257;28;20210;-91
2023/05/22 08:13:11;;;;;;;8.77;2.28;;;16.70;99.90;;;;;;5083363;28;20615;-90
2023/05/22 08:15:43;;;;;;;8.00;2.60;;;16.60;99.90;;;;;;5076165;28;20195;-90
2023/05/22 08:18:14;;;;;;;9.10;2.67;;;16.60;99.90;;;;;;5079399;28;20192;-91
2023/05/22 08:20:46;;;;;;;10.02;2.80;;;16.60;99.90;;;;;;5076287;28;20214;-91
2023/05/22 08:23:20;;;;;;;10.43;3.03;;;16.60;99.90;;;;;;5075652;28;20207;-90
2023/05/22 08:25:55;;;;;;;8.52;2.67;;;16.50;99.90;;;;;;5074868;28;20251;-90
2023/05/22 08:28:26;;;;;;;7.15;2.42;;;16.50;99.90;;;;;;5075170;28;20606;-91
2023/05/22 08:30:58;;;;;;;5.80;2.17;;;16.50;99.90;;;;;;5075535;28;20558;-90
2023/05/22 08:33:30;;;;;;;9.65;2.38;;;16.40;99.90;;;;;;5067260;28;20200;-91
2023/05/22 08:36:03;;;;;;;7.00;2.53;;;16.50;99.90;;;;;;5072623;28;20188;-90
2023/05/22 08:38:34;;;;;;;7.45;2.35;;;16.50;99.90;;;;;;5081737;28;20200;-90
2023/05/22 08:41:09;;;;;;;6.47;2.08;;;16.50;99.90;;;;;;5075433;28;20196;-90
2023/05/22 08:43:43;;;;;;;5.75;2.10;;;16.50;99.90;;;;;;5075898;28;20207;-89
2023/05/22 08:46:14;;;;;;;4.18;2.00;;;16.40;99.90;;;;;;5074245;28;20630;-91
2023/05/22 08:48:47;;;;;;;7.50;2.05;;;16.40;99.90;;;;;;5075569;28;20196;-91
2023/05/22 08:51:24;;;;;;;5.53;2.00;;;16.40;99.90;;;;;;5072703;28;20199;-91
2023/05/22 08:53:59;;;;;;;7.47;2.38;;;16.40;99.90;;;;;;5075333;28;20201;-92
2023/05/22 08:56:34;;;;;;;7.25;2.33;;;16.30;99.90;;;;;;5075370;28;20191;-90
2023/05/22 08:59:06;;;;;;;6.10;2.70;;;16.40;99.90;;;;;;5075307;28;20203;-89
2023/05/22 09:01:37;;;;;;;6.72;2.60;;;16.40;99.90;;;;;;5075347;28;20556;-91
2023/05/22 09:04:08;;;;;;;7.50;2.63;;;16.40;99.90;;;;;;5075717;28;20283;-91
2023/05/22 09:06:40;;;;;;;7.70;2.78;;;16.40;99.90;;;;;;5075109;28;20231;-91
2023/05/22 09:09:15;;;;;;;7.38;2.47;;;16.40;99.90;;;;;;5075507;28;20188;-91
2023/05/22 09:11:48;;;;;;;6.53;2.53;;;16.40;99.90;;;;;;5075469;28;20195;-90
2023/05/22 09:14:20;;;;;;;8.98;2.38;;;16.30;99.90;;;;;;5077417;28;20216;-91
2023/05/22 09:16:53;;;;;;;5.47;2.50;;;16.30;99.90;;;;;;5089451;28;20204;-91
2023/05/22 09:19:26;;;;;;;10.95;2.83;;;16.30;99.90;;;;;;5094353;28;20215;-91
2023/05/22 09:22:06;;;;;;;8.35;2.70;;;16.30;99.90;;;;;;5081948;28;20888;-91
2023/05/22 09:24:44;;;;;;;11.10;2.70;;;16.30;99.90;;;;;;5075025;28;20203;-89
2023/05/22 09:27:20;;;;;;;6.03;2.30;;;16.20;99.90;;;;;;5074333;28;20370;-90
2023/05/22 09:29:54;;;;;;;8.13;2.30;;;16.20;99.90;;;;;;5061914;28;20644;-90
2023/05/22 09:32:26;;;;;;;6.93;2.38;;;16.20;99.90;;;;;;5075406;28;20259;-89
2023/05/22 09:35:05;;;;;;;7.75;2.67;;;16.20;99.90;;;;;;5075713;28;20218;-91
2023/05/22 09:37:37;;;;;;;7.68;2.55;;;16.20;99.90;;;;;;5074980;28;20689;-91
2023/05/22 09:40:10;;;;;;;8.50;2.30;;;16.20;99.90;;;;;;5074513;28;20667;-92
2023/05/22 09:42:46;;;;;;;8.75;2.72;;;16.20;99.90;;;;;;5074906;28;20195;-92
2023/05/22 09:45:20;;;;;;;6.95;2.60;;;16.10;99.90;;;;;;5075026;28;20207;-91
2023/05/22 09:47:52;;;;;;;10.35;2.35;;;16.10;99.90;;;;;;5074428;28;20205;-90
2023/05/22 09:50:23;;;;;;;5.47;2.20;;;16.10;99.90;;;;;;5073927;28;20208;-91
2023/05/22 09:52:55;;;;;;;7.00;2.38;;;16.10;99.90;;;;;;5073590;28;20611;-90
2023/05/22 09:55:28;;;;;;;7.47;2.22;;;16.10;99.90;;;;;;5075088;28;20407;-92
2023/05/22 09:58:05;;;;;;;6.68;2.70;;;16.10;99.90;;;;;;5073943;28;20677;-90
2023/05/22 10:00:37;;;;;;;6.70;2.65;;;16.10;99.90;;;;;;5072951;28;20286;-90
2023/05/22 10:03:16;;;;;;;8.32;2.90;;;16.10;99.90;;;;;;5075495;28;20196;-91
2023/05/22 10:05:52;;;;;;;9.02;4.20;;;16.10;99.90;;;;;;5074185;28;20363;-90
2023/05/22 10:08:27;;;;;;;11.20;4.40;;;16.10;99.90;;;;;;5073073;28;20650;-90
2023/05/22 10:10:58;;;;;;;12.80;3.97;;;16.00;99.90;;;;;;5073557;28;20200;-91
2023/05/22 10:13:35;;;;;;;9.90;3.72;;;16.00;99.90;;;;;;5074068;28;20204;-90
2023/05/22 10:16:08;;;;;;;9.93;3.92;;;15.90;99.90;;;;;;5073944;28;20659;-90
2023/05/22 10:18:41;;;;;;;10.65;4.32;;;15.90;99.90;;;;;;5074285;28;20196;-91
2023/05/22 10:21:12;;;;;;;16.27;7.25;;;15.80;99.90;;;;;;5073057;28;20215;-91
2023/05/22 10:23:45;;;;;;;14.95;7.18;;;15.70;99.90;;;;;;5073477;28;20208;-90
2023/05/22 10:26:18;;;;;;;13.98;6.32;;;15.70;99.90;;;;;;5072793;28;20228;-91
2023/05/22 10:28:58;;;;;;;12.63;5.60;;;15.70;99.90;;;;;;5073532;28;20657;-91
2023/05/22 10:31:41;;;;;;;11.15;4.82;;;15.60;99.90;;;;;;5073716;28;20568;-90
2023/05/22 10:34:21;;;;;;;8.68;4.00;;;15.60;99.90;;;;;;5073425;28;20539;-91
2023/05/22 10:37:09;;;;;;;9.48;3.55;;;15.50;99.90;;;;;;5073397;28;20670;-90
2023/05/22 10:39:52;;;;;;;7.50;3.38;;;15.50;99.90;;;;;;5072897;28;20283;-90
2023/05/22 10:42:24;;;;;;;10.20;3.72;;;15.40;99.90;;;;;;5073691;28;20283;-91
2023/05/22 10:44:59;;;;;;;10.38;4.22;;;15.50;99.90;;;;;;5073505;28;20200;-91
2023/05/22 10:47:30;;;;;;;13.98;4.80;;;15.50;99.90;;;;;;5073509;28;20229;-90
2023/05/22 10:50:13;;;;;;;10.35;4.45;;;15.40;99.90;;;;;;5077141;28;20196;-89
2023/05/22 10:52:44;;;;;;;12.65;3.80;;;15.40;99.90;;;;;;5074669;28;20199;-89
2023/05/22 10:55:16;;;;;;;10.27;3.67;;;15.30;99.90;;;;;;5074282;28;20204;-91
2023/05/22 10:57:48;;;;;;;9.98;3.80;;;15.30;99.90;;;;;;5074559;28;20204;-90
2023/05/22 11:00:27;;;;;;;6.80;3.63;;;15.20;99.90;;;;;;5074575;28;20586;-91
2023/05/22 11:03:12;;;;;;;9.10;3.60;;;15.30;99.90;;;;;;5075048;28;20210;-91
2023/05/22 11:06:00;;;;;;;11.77;4.00;;;15.20;99.90;;;;;;5075447;28;20219;-91
2023/05/22 11:08:42;;;;;;;8.70;3.80;;;15.20;99.90;;;;;;5085866;28;20192;-91
2023/05/22 11:11:23;;;;;;;8.38;4.00;;;15.30;99.90;;;;;;5081278;28;20271;-90
2023/05/22 11:14:05;;;;;;;9.95;4.13;;;15.20;99.90;;;;;;5082901;28;20203;-93
2023/05/22 11:16:41;;;;;;;8.95;4.00;;;15.20;99.90;;;;;;5067828;28;20207;-89
2023/05/22 11:22:06;;;;;;;7.47;3.47;;;15.20;99.90;;;;;;5076495;28;20202;-90
2023/05/22 11:24:41;;;;;;;10.57;3.20;;;15.10;99.90;;;;;;5076495;28;20200;-88
2023/05/22 11:27:13;;;;;;;6.93;3.30;;;15.00;99.90;;;;;;5075125;28;20230;-89
2023/05/22 11:29:59;;;;;;;10.20;3.80;;;15.10;99.90;;;;;;5068416;28;20782;-89
2023/05/22 11:32:38;;;;;;;8.45;3.85;;;15.00;99.90;;;;;;5072251;28;20211;-89
2023/05/22 11:35:11;;;;;;;11.00;4.05;;;15.00;99.90;;;;;;5061318;28;20283;-91
2023/05/22 11:37:43;;;;;;;6.95;3.80;;;15.10;99.90;;;;;;5068705;28;20274;-91
2023/05/22 11:40:16;;;;;;;8.25;3.90;;;15.00;99.90;;;;;;5080477;28;20196;-90
2023/05/22 11:42:51;;;;;;;7.30;3.65;;;15.00;99.90;;;;;;5084987;28;20227;-92
2023/05/22 11:45:24;;;;;;;9.50;3.63;;;15.00;99.90;;;;;;5082002;28;20195;-91
2023/05/22 11:48:04;;;;;;;9.40;4.15;;;14.90;99.90;;;;;;5079518;28;20235;-91
2023/05/22 11:50:36;;;;;;;13.98;3.63;;;14.80;99.90;;;;;;5081838;28;20215;-91
2023/05/22 11:53:15;;;;;;;6.47;3.22;;;14.80;99.90;;;;;;5082536;28;20289;-91
2023/05/22 11:56:03;;;;;;;12.50;3.75;;;14.80;99.90;;;;;;5061737;28;20574;-91
2023/05/22 11:58:39;;;;;;;9.05;3.33;;;14.70;99.90;;;;;;5059669;28;20196;-92
2023/05/22 12:01:15;;;;;;;8.48;3.60;;;14.70;99.90;;;;;;5058377;28;20204;-92
2023/05/22 12:03:54;;;;;;;9.90;3.33;;;14.70;99.90;;;;;;5060489;28;20211;-92
2023/05/22 12:06:32;;;;;;;10.90;3.58;;;14.60;99.90;;;;;;5079653;28;20231;-91
2023/05/22 12:09:06;;;;;;;10.05;3.45;;;14.70;99.90;;;;;;5080789;28;20200;-90
2023/05/22 12:11:40;;;;;;;9.20;3.28;;;14.70;99.90;;;;;;5081845;28;20200;-92
2023/05/22 12:17:00;;;;;;;10.90;3.50;;;14.80;99.90;;;;;;5057413;28;20676;-92
2023/05/22 12:19:45;;;;;;;7.63;3.67;;;14.80;99.90;;;;;;5059097;28;20223;-90
2023/05/22 12:22:28;;;;;;;11.07;3.83;;;14.70;99.90;;;;;;5071758;28;20207;-91
2023/05/22 12:25:02;;;;;;;10.60;3.60;;;14.70;99.90;;;;;;5077598;28;20200;-91
2023/05/22 12:27:34;;;;;;;10.23;3.92;;;14.70;99.90;;;;;;5075533;28;20242;-92
2023/05/22 12:30:19;;;;;;;11.15;4.10;;;14.60;99.90;;;;;;5082981;28;20211;-91
2023/05/22 12:32:55;;;;;;;8.25;3.75;;;14.60;99.90;;;;;;5084808;28;20203;-92
2023/05/22 12:35:32;;;;;;;7.68;4.07;;;14.60;99.90;;;;;;5076587;28;20210;-92
2023/05/22 12:38:04;;;;;;;9.77;3.88;;;14.50;99.90;;;;;;5063073;28;20226;-90
2023/05/22 12:40:36;;;;;;;7.32;3.28;;;14.50;99.90;;;;;;5080669;28;20202;-91
2023/05/22 12:43:08;;;;;;;6.82;3.78;;;14.40;99.90;;;;;;5080276;28;20204;-91
2023/05/22 12:45:41;;;;;;;7.05;3.78;;;14.40;99.90;;;;;;5079231;28;20214;-91
2023/05/22 12:48:15;;;;;;;10.27;3.95;;;14.30;99.90;;;;;;5079077;28;20220;-92
2023/05/22 12:50:59;;;;;;;8.45;3.95;;;14.30;99.90;;;;;;5080986;28;20223;-91
2023/05/22 12:53:33;;;;;;;8.95;4.00;;;14.20;99.90;;;;;;5079801;28;20192;-90
2023/05/22 12:56:06;;;;;;;9.60;4.57;;;14.20;99.90;;;;;;5078506;28;20203;-91
2023/05/22 12:59:00;;;;;;;7.75;4.10;;;14.10;99.90;;;;;;5076719;28;20687;-92
2023/05/22 13:01:31;;;;;;;10.93;4.22;;;14.10;99.90;;;;;;5076259;28;20611;-92
2023/05/22 13:04:03;;;;;;;9.02;4.10;;;14.10;99.90;;;;;;5076254;28;20681;-92
2023/05/22 13:06:39;;;;;;;8.82;4.00;;;14.10;99.90;;;;;;5076336;28;20226;-90
2023/05/22 13:09:10;;;;;;;9.20;4.63;;;14.10;99.90;;;;;;5075977;28;20203;-89
2023/05/22 13:11:42;;;;;;;10.68;4.70;;;14.10;99.90;;;;;;5076026;28;20211;-91
2023/05/22 13:14:15;;;;;;;10.82;4.63;;;14.10;99.90;;;;;;5078823;28;20561;-91
2023/05/22 13:16:48;;;;;;;11.55;5.03;;;14.10;99.90;;;;;;5076886;28;20202;-90
2023/05/22 13:19:20;;;;;;;10.90;4.80;;;14.10;99.90;;;;;;5076785;28;20212;-90
2023/05/22 13:21:55;;;;;;;11.00;5.07;;;14.10;99.90;;;;;;5076941;28;20203;-91
2023/05/22 13:24:26;;;;;;;11.10;5.45;;;14.10;99.90;;;;;;5077199;28;20191;-91
2023/05/22 13:26:58;;;;;;;11.00;5.70;;;14.00;99.90;;;;;;5077392;28;20222;-91